Time;durP1;ratioP1;P1;durP2;ratioP2;P2;SDS_P1;SDS_P2;PMS_P1;PMS_P2;Temp;Humidity;BMP_temperature;BMP_pressure;BME280_temperature;BME280_humidity;BME280_pressure;Samples;Min_cycle;Max_cycle;Signal;HPM_P1;HPM_P2
2022/10/13 00:04:36;;;;;;;24.83;19.97;;;;;14.40;99420.00;;;;16453943;28;20219;-47
2022/10/13 00:12:40;;;;;;;25.60;19.70;;;;;14.70;99419.00;;;;16450114;28;20229;-48
2022/10/13 00:20:47;;;;;;;18.83;16.37;;;;;13.50;99438.00;;;;16456456;28;20308;-48
2022/10/13 00:28:50;;;;;;;19.30;17.27;;;;;12.90;99445.00;;;;16452069;28;20222;-48
2022/10/13 00:36:53;;;;;;;23.30;17.70;;;;;13.30;99447.00;;;;16446879;28;20220;-48
2022/10/13 00:45:06;;;;;;;19.13;16.67;;;;;13.90;99437.00;;;;16446456;28;20733;-48
2022/10/13 00:53:09;;;;;;;23.40;21.00;;;;;14.40;99431.00;;;;16464417;28;20230;-48
2022/10/13 01:01:13;;;;;;;30.20;23.60;;;;;13.50;99426.00;;;;16447449;28;20781;-47
2022/10/13 01:09:15;;;;;;;28.13;23.33;;;;;13.70;99439.00;;;;16452481;28;20627;-48
2022/10/13 01:17:27;;;;;;;24.60;21.10;;;;;14.10;99427.00;;;;16462488;28;20287;-48
2022/10/13 01:25:44;;;;;;;33.97;19.70;;;;;14.70;99414.00;;;;16451017;28;20241;-48
2022/10/13 01:33:52;;;;;;;26.90;20.30;;;;;15.00;99404.00;;;;16444346;28;20224;-48
2022/10/13 01:42:01;;;;;;;24.37;20.40;;;;;14.60;99398.00;;;;16445280;28;20228;-48
2022/10/13 01:50:06;;;;;;;23.30;19.93;;;;;14.70;99379.00;;;;16437510;28;20250;-47
2022/10/13 01:58:11;;;;;;;26.87;20.07;;;;;14.80;99385.00;;;;16459849;28;20234;-46
2022/10/13 02:06:21;;;;;;;26.60;19.77;;;;;14.80;99383.00;;;;16455953;28;20228;-48
2022/10/13 02:14:26;;;;;;;31.37;19.03;;;;;14.90;99381.00;;;;16464393;28;20223;-48
2022/10/13 02:22:33;;;;;;;22.87;18.70;;;;;15.00;99377.00;;;;16464629;28;20317;-48
2022/10/13 02:30:40;;;;;;;22.17;19.17;;;;;15.00;99384.00;;;;16456436;28;20279;-49
2022/10/13 02:38:44;;;;;;;29.60;20.03;;;;;14.80;99383.00;;;;16451116;28;20240;-48
2022/10/13 02:46:46;;;;;;;21.90;17.80;;;;;15.00;99377.00;;;;16454152;28;20228;-48
2022/10/13 02:54:50;;;;;;;23.37;19.33;;;;;14.70;99379.00;;;;16457795;28;20711;-48
2022/10/13 03:02:53;;;;;;;26.40;21.40;;;;;14.70;99381.00;;;;16455237;28;20229;-48
2022/10/13 03:10:56;;;;;;;24.27;21.40;;;;;14.80;99377.00;;;;16456901;28;20722;-47
2022/10/13 03:18:59;;;;;;;22.40;18.20;;;;;14.80;99376.00;;;;16449566;28;20239;-48
2022/10/13 03:27:02;;;;;;;25.33;19.90;;;;;15.00;99366.00;;;;16454619;28;20238;-48
2022/10/13 03:35:06;;;;;;;25.70;19.10;;;;;14.80;99359.00;;;;16451236;28;20228;-48
2022/10/13 03:43:10;;;;;;;27.83;20.03;;;;;14.90;99344.00;;;;16445927;28;20231;-48
2022/10/13 03:51:14;;;;;;;23.47;19.07;;;;;14.70;99334.00;;;;16445219;28;20566;-48
2022/10/13 03:59:21;;;;;;;19.33;15.73;;;;;14.90;99339.00;;;;16445912;28;20231;-47
2022/10/13 04:07:24;;;;;;;24.90;18.87;;;;;14.80;99340.00;;;;16448372;28;20577;-48
2022/10/13 04:15:28;;;;;;;23.03;18.20;;;;;14.70;99350.00;;;;16444692;28;20232;-48
2022/10/13 04:23:30;;;;;;;19.77;16.17;;;;;14.60;99355.00;;;;16450498;28;20327;-48
2022/10/13 04:31:34;;;;;;;20.30;16.70;;;;;14.50;99343.00;;;;16453131;28;20786;-48
2022/10/13 04:39:36;;;;;;;20.20;17.50;;;;;14.40;99347.00;;;;16446747;28;20228;-48
2022/10/13 04:47:40;;;;;;;27.23;17.30;;;;;14.60;99347.00;;;;16457663;28;20235;-48
2022/10/13 04:55:43;;;;;;;20.33;16.00;;;;;14.40;99338.00;;;;16459379;28;20235;-48
2022/10/13 05:03:46;;;;;;;22.33;16.30;;;;;14.40;99332.00;;;;16453957;28;20250;-48
2022/10/13 05:11:49;;;;;;;18.50;16.20;;;;;14.30;99317.00;;;;16456701;28;20208;-47
2022/10/13 05:19:53;;;;;;;19.40;15.57;;;;;14.30;99330.00;;;;16465893;28;20233;-48
2022/10/13 05:27:55;;;;;;;24.10;17.60;;;;;14.30;99341.00;;;;16480034;28;20246;-47
2022/10/13 05:36:05;;;;;;;20.00;17.33;;;;;14.40;99338.00;;;;16473743;28;20228;-48
2022/10/13 05:44:11;;;;;;;26.07;19.30;;;;;14.40;99336.00;;;;16460603;28;20239;-48
2022/10/13 05:52:20;;;;;;;22.80;18.80;;;;;14.50;99341.00;;;;16483405;28;20211;-48
2022/10/13 06:00:26;;;;;;;25.03;17.30;;;;;14.50;99340.00;;;;16467785;28;20246;-48
2022/10/13 06:08:32;;;;;;;20.13;17.57;;;;;14.60;99326.00;;;;16469551;28;20299;-47
2022/10/13 06:16:36;;;;;;;20.63;18.53;;;;;14.60;99323.00;;;;16456553;28;20234;-47
2022/10/13 06:24:39;;;;;;;24.40;18.43;;;;;14.70;99319.00;;;;16452633;28;20593;-48
2022/10/13 06:32:44;;;;;;;21.90;18.20;;;;;14.90;99322.00;;;;16454709;28;20217;-48
2022/10/13 06:40:48;;;;;;;24.90;18.17;;;;;15.00;99328.00;;;;16453260;28;20711;-47
2022/10/13 06:48:50;;;;;;;21.53;18.70;;;;;15.20;99320.00;;;;16458339;28;20239;-49
2022/10/13 06:56:54;;;;;;;23.30;16.63;;;;;15.20;99322.00;;;;16458605;28;20718;-48
2022/10/13 07:04:56;;;;;;;24.97;17.00;;;;;15.10;99311.00;;;;16457383;28;20686;-48
2022/10/13 07:13:00;;;;;;;22.37;18.80;;;;;15.30;99319.00;;;;16452630;28;20236;-47
2022/10/13 07:21:03;;;;;;;22.73;18.40;;;;;15.10;99320.00;;;;16443049;28;20244;-48
2022/10/13 07:29:08;;;;;;;23.93;20.20;;;;;15.40;99317.00;;;;16443649;28;20714;-48
2022/10/13 07:37:10;;;;;;;26.43;20.03;;;;;15.50;99323.00;;;;16446810;28;20712;-48
2022/10/13 07:45:15;;;;;;;24.37;19.20;;;;;15.60;99310.00;;;;16444332;28;20241;-48
2022/10/13 07:53:17;;;;;;;26.20;19.80;;;;;15.50;99311.00;;;;16455366;28;20296;-47
2022/10/13 08:01:21;;;;;;;21.53;17.00;;;;;15.90;99309.00;;;;16448423;28;20227;-48
2022/10/13 08:09:23;;;;;;;20.03;17.60;;;;;16.30;99291.00;;;;16455534;28;20220;-48
2022/10/13 08:17:27;;;;;;;19.07;16.90;;;;;16.20;99288.00;;;;16445436;28;20220;-48
2022/10/13 08:25:30;;;;;;;22.10;16.63;;;;;16.40;99283.00;;;;16444940;28;20712;-48
2022/10/13 08:33:33;;;;;;;23.60;16.77;;;;;16.40;99279.00;;;;16450963;28;20219;-48
2022/10/13 08:41:38;;;;;;;19.23;15.40;;;;;16.90;99277.00;;;;16454215;28;20715;-48
2022/10/13 08:49:44;;;;;;;17.27;14.60;;;;;17.50;99255.00;;;;16463199;28;20245;-48
2022/10/13 08:57:47;;;;;;;18.20;13.33;;;;;17.60;99262.00;;;;16463827;28;20239;-48
2022/10/13 09:05:59;;;;;;;15.43;13.43;;;;;17.50;99243.00;;;;16445096;28;20718;-48
2022/10/13 09:14:04;;;;;;;18.33;13.43;;;;;17.90;99254.00;;;;16443424;28;20232;-48
2022/10/13 09:22:19;;;;;;;13.80;11.57;;;;;18.00;99245.00;;;;16447317;28;21478;-47
2022/10/13 09:30:29;;;;;;;10.20;9.00;;;;;18.40;99258.00;;;;16440049;28;20562;-48
2022/10/13 09:38:33;;;;;;;15.30;10.90;;;;;19.00;99246.00;;;;16440106;28;20217;-48
2022/10/13 09:46:38;;;;;;;14.40;11.37;;;;;18.60;99233.00;;;;16441145;28;20242;-48
2022/10/13 09:54:48;;;;;;;11.70;10.13;;;;;19.00;99245.00;;;;16495225;23;20764;-48
2022/10/13 10:02:54;;;;;;;14.40;10.60;;;;;19.70;99236.00;;;;16509187;28;20228;-49
2022/10/13 10:11:01;;;;;;;10.43;9.40;;;;;19.20;99233.00;;;;16502263;28;20211;-49
2022/10/13 10:19:10;;;;;;;12.93;9.43;;;;;19.60;99231.00;;;;16521736;28;20238;-49
2022/10/13 10:27:17;;;;;;;10.67;8.70;;;;;19.30;99229.00;;;;16520189;28;20727;-49
2022/10/13 10:35:25;;;;;;;12.70;9.87;;;;;19.30;99219.00;;;;16514082;28;20241;-49
2022/10/13 10:43:43;;;;;;;7.83;7.03;;;;;19.20;99214.00;;;;16522131;28;20236;-49
2022/10/13 10:51:48;;;;;;;9.17;8.20;;;;;19.60;99214.00;;;;16514443;28;20244;-48
2022/10/13 11:00:00;;;;;;;9.63;8.60;;;;;19.50;99190.00;;;;16518169;28;20227;-49
2022/10/13 11:08:03;;;;;;;13.77;7.97;;;;;20.20;99187.00;;;;16519159;28;20247;-49
2022/10/13 11:25:01;;;;;;;7.77;7.07;;;;;20.40;99164.00;;;;16925028;27;20649;-50
2022/10/13 11:33:52;;;;;;;7.40;6.60;;;;;20.20;99151.00;;;;16838224;28;20219;-50
2022/10/13 11:42:05;;;;;;;13.93;7.40;;;;;20.20;99131.00;;;;16841218;28;20223;-50
2022/10/13 11:50:16;;;;;;;9.00;7.23;;;;;20.10;99132.00;;;;16844605;28;20276;-49
2022/10/13 11:58:22;;;;;;;9.87;6.87;;;;;20.80;99120.00;;;;16841726;28;20209;-50
2022/10/13 12:06:32;;;;;;;9.33;7.50;;;;;20.70;99106.00;;;;16843277;28;20216;-50
2022/10/13 12:14:39;;;;;;;8.33;6.00;;;;;20.80;99101.00;;;;16841458;28;20297;-50
2022/10/13 12:22:48;;;;;;;11.20;6.40;;;;;21.30;99089.00;;;;16825539;28;20379;-50
2022/10/13 12:30:56;;;;;;;10.70;6.80;;;;;21.80;99072.00;;;;16823319;28;20204;-50
2022/10/13 12:39:01;;;;;;;9.10;6.57;;;;;22.70;99062.00;;;;16791766;28;20302;-50
2022/10/13 12:47:06;;;;;;;12.00;6.40;;;;;22.30;99051.00;;;;16799664;28;20213;-50
2022/10/13 12:55:16;;;;;;;10.20;5.73;;;;;22.80;99029.00;;;;16790383;28;20224;-50
2022/10/13 13:03:25;;;;;;;11.00;7.17;;;;;22.30;99027.00;;;;16798196;28;20217;-50
2022/10/13 13:11:35;;;;;;;11.80;7.00;;;;;22.50;99035.00;;;;16771981;28;20194;-50
2022/10/13 13:19:42;;;;;;;9.10;6.50;;;;;22.30;99035.00;;;;16786526;28;20225;-50
2022/10/13 13:27:45;;;;;;;10.57;7.30;;;;;22.60;99031.00;;;;16792101;28;20217;-50
2022/10/13 13:35:53;;;;;;;7.50;6.67;;;;;21.80;99029.00;;;;16786726;28;20209;-50
2022/10/13 13:43:56;;;;;;;11.83;9.00;;;;;21.40;99031.00;;;;16788383;28;20224;-50
2022/10/13 13:52:00;;;;;;;8.10;6.87;;;;;21.60;99018.00;;;;16787481;28;20713;-50
2022/10/13 14:00:03;;;;;;;9.30;8.33;;;;;21.30;99023.00;;;;16789366;28;20969;-49
2022/10/13 14:08:15;;;;;;;13.83;7.80;;;;;21.70;99024.00;;;;16778417;28;20221;-50
2022/10/13 14:16:17;;;;;;;14.80;8.17;;;;;21.40;99008.00;;;;16773825;28;20278;-51
2022/10/13 14:24:21;;;;;;;9.80;8.20;;;;;21.60;99003.00;;;;16770488;28;20743;-50
2022/10/13 14:32:24;;;;;;;16.73;9.17;;;;;21.20;99012.00;;;;16780288;28;20209;-49
2022/10/13 14:40:27;;;;;;;10.27;9.27;;;;;20.90;99007.00;;;;16762357;28;20217;-49
2022/10/13 14:48:31;;;;;;;13.70;8.00;;;;;21.00;99012.00;;;;16781060;28;20785;-50
2022/10/13 14:56:35;;;;;;;10.70;8.40;;;;;21.10;99002.00;;;;16771281;28;20217;-49
2022/10/13 15:04:37;;;;;;;9.57;7.90;;;;;20.50;98988.00;;;;16778837;28;20232;-49
2022/10/13 15:12:41;;;;;;;11.93;7.67;;;;;20.60;98990.00;;;;16750369;28;20408;-49
2022/10/13 15:20:46;;;;;;;9.10;7.63;;;;;20.00;99013.00;;;;16756994;28;20221;-50
2022/10/13 15:28:51;;;;;;;10.27;7.73;;;;;19.50;99023.00;;;;16745935;28;20586;-49
2022/10/13 15:36:54;;;;;;;13.60;8.83;;;;;19.40;99022.00;;;;16771955;28;20703;-50
2022/10/13 15:44:57;;;;;;;10.63;7.70;;;;;19.40;99022.00;;;;16756539;28;20575;-49
2022/10/13 15:53:00;;;;;;;10.47;8.10;;;;;19.40;99021.00;;;;16767324;28;20227;-50
2022/10/13 16:01:07;;;;;;;10.90;7.50;;;;;18.80;99031.00;;;;16703357;22;20572;-47
2022/10/13 16:09:10;;;;;;;15.37;10.30;;;;;19.80;99020.00;;;;16625865;28;20224;-48
2022/10/13 16:17:13;;;;;;;10.50;8.83;;;;;19.10;99049.00;;;;16577763;28;20652;-48
2022/10/13 16:25:16;;;;;;;16.53;9.70;;;;;20.10;99047.00;;;;16579088;28;20396;-47
2022/10/13 16:33:20;;;;;;;15.40;10.10;;;;;19.70;99047.00;;;;16591414;28;20554;-47
2022/10/13 16:41:22;;;;;;;13.13;11.30;;;;;18.90;99057.00;;;;16582440;28;20234;-47
2022/10/13 16:49:26;;;;;;;14.13;10.70;;;;;18.00;99065.00;;;;16578762;28;20311;-47
2022/10/13 16:57:29;;;;;;;14.13;11.37;;;;;18.60;99059.00;;;;16580831;28;20231;-48
2022/10/13 17:05:33;;;;;;;19.50;10.80;;;;;17.40;99059.00;;;;16581439;28;20217;-47
2022/10/13 17:13:36;;;;;;;12.63;10.50;;;;;17.20;99058.00;;;;16564679;28;20543;-47
2022/10/13 17:21:40;;;;;;;17.47;12.83;;;;;17.00;99075.00;;;;16566354;28;20724;-47
2022/10/13 17:29:44;;;;;;;17.07;12.20;;;;;17.20;99057.00;;;;16573839;28;20231;-47
2022/10/13 17:37:49;;;;;;;18.47;15.33;;;;;16.90;99056.00;;;;16581911;28;20207;-46
2022/10/13 17:45:53;;;;;;;17.93;13.20;;;;;16.60;99062.00;;;;16583354;28;20206;-46
2022/10/13 17:53:59;;;;;;;17.70;14.90;;;;;16.80;99062.00;;;;16577732;28;20215;-47
2022/10/13 18:02:02;;;;;;;19.83;13.77;;;;;16.70;99063.00;;;;16577971;28;20237;-47
2022/10/13 18:10:07;;;;;;;26.03;14.40;;;;;16.50;99076.00;;;;16589846;28;20286;-47
2022/10/13 18:18:10;;;;;;;18.57;16.30;;;;;16.60;99072.00;;;;16553216;28;20224;-48
2022/10/13 18:26:16;;;;;;;17.20;15.40;;;;;16.50;99070.00;;;;16555335;28;20648;-47
2022/10/13 18:34:18;;;;;;;23.70;17.60;;;;;17.00;99063.00;;;;16552327;28;20212;-48
2022/10/13 18:42:22;;;;;;;19.53;17.37;;;;;16.70;99063.00;;;;16555661;28;20787;-47
2022/10/13 18:50:25;;;;;;;21.40;15.10;;;;;16.60;99064.00;;;;16551672;28;20664;-48
2022/10/13 18:58:29;;;;;;;18.00;15.80;;;;;16.70;99069.00;;;;16550435;28;20235;-48
2022/10/13 19:06:32;;;;;;;17.30;15.60;;;;;17.00;99060.00;;;;16558357;28;20668;-48
2022/10/13 19:14:35;;;;;;;23.53;17.80;;;;;16.60;99063.00;;;;16551852;28;20209;-47
2022/10/13 19:22:38;;;;;;;19.40;16.27;;;;;17.10;99050.00;;;;16554852;28;20239;-47
2022/10/13 19:30:41;;;;;;;20.27;16.00;;;;;16.90;99064.00;;;;16576849;28;20308;-47
2022/10/13 19:38:44;;;;;;;18.53;16.17;;;;;17.00;99054.00;;;;16577805;28;20606;-48
2022/10/13 19:46:49;;;;;;;18.87;15.50;;;;;16.80;99051.00;;;;16583034;28;20218;-48
2022/10/13 19:54:52;;;;;;;18.67;16.83;;;;;16.50;99059.00;;;;16584233;28;20585;-48
2022/10/13 20:02:56;;;;;;;30.20;23.30;;;;;16.70;99067.00;;;;16584811;28;20231;-48
2022/10/13 20:10:59;;;;;;;24.00;16.20;;;;;16.30;99074.00;;;;16558420;28;20269;-48
2022/10/13 20:19:03;;;;;;;20.43;18.07;;;;;16.10;99072.00;;;;16555489;28;20302;-48
2022/10/13 20:27:06;;;;;;;21.63;15.80;;;;;16.20;99076.00;;;;16558917;28;20215;-48
2022/10/13 20:35:11;;;;;;;24.13;15.97;;;;;15.80;99091.00;;;;16560339;28;20723;-48
2022/10/13 20:43:13;;;;;;;17.40;15.57;;;;;15.60;99087.00;;;;16562500;28;20281;-48
2022/10/13 20:51:19;;;;;;;20.17;17.50;;;;;15.70;99093.00;;;;16578556;28;20221;-48
2022/10/13 20:59:21;;;;;;;24.40;18.17;;;;;15.90;99091.00;;;;16583998;28;20318;-48
2022/10/13 21:07:27;;;;;;;19.73;15.60;;;;;16.30;99077.00;;;;16583782;28;20254;-47
2022/10/13 21:15:29;;;;;;;18.27;16.37;;;;;16.00;99084.00;;;;16582473;28;20286;-47
2022/10/13 21:23:33;;;;;;;24.23;16.13;;;;;15.40;99093.00;;;;16582887;28;20223;-48
2022/10/13 21:31:36;;;;;;;20.20;16.90;;;;;15.40;99088.00;;;;16583730;28;20235;-47
2022/10/13 21:39:39;;;;;;;22.50;18.40;;;;;15.70;99091.00;;;;16583186;28;20232;-47
2022/10/13 21:47:42;;;;;;;15.63;14.03;;;;;15.60;99084.00;;;;16583157;28;20227;-48
2022/10/13 21:55:45;;;;;;;19.30;16.20;;;;;15.40;99085.00;;;;16577511;28;20282;-48
2022/10/13 22:03:48;;;;;;;14.50;13.00;;;;;15.20;99088.00;;;;16580381;28;20254;-47
2022/10/13 22:11:56;;;;;;;15.93;13.23;;;;;15.40;99101.00;;;;16576851;28;20285;-47
2022/10/13 22:19:58;;;;;;;16.80;15.13;;;;;15.80;99101.00;;;;16573495;28;20316;-48
2022/10/13 22:28:02;;;;;;;15.87;13.87;;;;;15.30;99103.00;;;;16579838;28;20231;-47
2022/10/13 22:36:07;;;;;;;15.40;13.33;;;;;15.60;99093.00;;;;16576350;28;20239;-47
2022/10/13 22:44:11;;;;;;;14.60;13.10;;;;;16.00;99086.00;;;;16577725;28;20748;-47
2022/10/13 22:52:13;;;;;;;16.50;14.20;;;;;16.10;99085.00;;;;16574937;28;20225;-47
2022/10/13 23:00:17;;;;;;;21.03;13.73;;;;;15.50;99082.00;;;;16574345;28;20269;-47
2022/10/13 23:08:22;;;;;;;16.83;11.87;;;;;15.90;99080.00;;;;16573335;28;20223;-47
2022/10/13 23:16:26;;;;;;;16.53;11.73;;;;;16.00;99078.00;;;;16576313;28;20218;-48
2022/10/13 23:24:29;;;;;;;13.43;12.13;;;;;16.60;99066.00;;;;16573483;28;20229;-47
2022/10/13 23:32:32;;;;;;;13.70;11.60;;;;;16.50;99068.00;;;;16573927;28;20210;-47
2022/10/13 23:40:35;;;;;;;12.57;11.40;;;;;16.80;99071.00;;;;16576517;28;20227;-48
2022/10/13 23:48:39;;;;;;;12.43;11.20;;;;;16.70;99064.00;;;;16571413;28;20235;-48
2022/10/13 23:56:42;;;;;;;18.20;13.70;;;;;16.40;99061.00;;;;16587371;28;20309;-48
